Terry Peak, South Dakota
Current Conditions -  °F | °C
As of 9:35 AM on Friday 28 Nov 2014 (Local Time) from KSPF Reporting Station
Clear Clear  
Wind Chill: 55°   Ceiling: Unl
Heat Index: 55°   Visibility: 10mi
Dew Point: 28°   Wind: 8mph
Humidity: 36%   Direction: 200°SSW
Pressure: 29.7"   Gusts: NA
Location:  44.253°N, 103.912°W
Report Text: KSPF 281635Z AUTO 20007KT 10SM CLR 13/M02 A2970 RMK AO2
Loading
Personal Weather Stations






























Interactive Weather Map New forecast layout! Learn more

10-Day Weather Forecast

Advertisements
Track Severe Weather on mobile